Flight Track Log - Related Links

Times and Time Zones

All times are in EDT time to prevent confusion due to time zone crossing. See the DAL5996 flight status page for this flight to view local times or setup timezone preferences in your user account.

Time Position Orientation Groundspeed Altitude Reporting Facility
EDT Latitude Longitude Course Direction KTS MPH feet Rate Location/Type
Fri 08:07:42 AM 32.9333 -97.0333 73° East 161 185 2,900  Level Dallas / Fort Worth TRACON
Fri 08:08:42 AM 33.0000 -97.0333 360° North 224 258 5,200 2,850 Climbing Dallas / Fort Worth TRACON
Fri 08:09:42 AM 33.0500 -97.0167 16° North 225 259 8,600 2,922 Climbing Dallas / Fort Worth TRACON
Fri 08:10:37 AM 33.0833 -96.9500 59° Northeast 317 365 10,800 2,610 Climbing Dallas / Fort Worth TRACON
Fri 08:11:00 AM 33.0353 -96.3751 57° Northeast  Level FlightAware Approximate
Fri 08:12:00 AM 33.1027 -96.2183 64° Northeast  Level FlightAware Approximate
Fri 08:12:39 AM 33.0883 -96.7167 88° East 362 417 16,300  Level Fort Worth Center
Fri 08:13:00 AM 33.1498 -96.0509 73° East  Level FlightAware Approximate
Fri 08:13:39 AM 33.0875 -96.5953 90° East 367 422 17,800  Level Fort Worth Center
Fri 08:14:39 AM 33.0844 -96.4564 91° East 392 451 19,000 1,150 Climbing Fort Worth Center
Fri 08:15:39 AM 33.0917 -96.3125 87° East 449 517 20,100 1,550 Climbing Fort Worth Center
Fri 08:16:39 AM 33.1400 -96.1408 71° East 480 552 22,100 1,750 Climbing Fort Worth Center
Fri 08:17:39 AM 33.1844 -95.9961 70° East 508 585 23,600 1,550 Climbing Fort Worth Center
Fri 08:18:39 AM 33.2325 -95.8314 71° East 523 602 25,200 1,400 Climbing Fort Worth Center
Fri 08:19:39 AM 33.2806 -95.6642 71° East 528 608 26,400 1,250 Climbing Fort Worth Center
Fri 08:20:39 AM 33.3339 -95.4717 72° East 536 617 27,700 1,200 Climbing Fort Worth Center
Fri 08:21:39 AM 33.3833 -95.2964 71° East 547 629 28,800 1,250 Climbing Fort Worth Center
Fri 08:22:39 AM 33.4344 -95.1186 71° East 552 635 30,200 1,350 Climbing Fort Worth Center
Fri 08:23:39 AM 33.4875 -94.9403 70° East 557 641 31,500 1,339 Climbing Fort Worth Center
Fri 08:24:40 AM 33.5361 -94.7619 72° East 557 641 32,900 1,150 Climbing Fort Worth Center
Fri 08:25:39 AM 33.5806 -94.6061 71° East 557 641 33,800 1,059 Climbing Fort Worth Center
Fri 08:26:39 AM 33.6308 -94.4322 71° East 557 641 35,000 350 Climbing Fort Worth Center
Fri 08:29:05 AM 33.7894 -94.0164 65° Northeast 570 656 35,000  Level Memphis Center
Fri 08:30:05 AM 33.8714 -93.8522 59° Northeast 564 649 35,000  Level Memphis Center
Fri 08:31:05 AM 33.9531 -93.6853 59° Northeast 564 649 35,000  Level Memphis Center
Fri 08:32:05 AM 34.0325 -93.5253 59° Northeast 564 649 35,000  Level Memphis Center
Fri 08:33:05 AM 34.1158 -93.3603 59° Northeast 564 649 35,000  Level Memphis Center
Fri 08:34:05 AM 34.1947 -93.1972 60° Northeast 564 649 35,000  Level Memphis Center
Fri 08:35:05 AM 34.2736 -93.0289 60° Northeast 564 649 35,000  Level Memphis Center
Fri 08:36:05 AM 34.3608 -92.8431 60° Northeast 564 649 35,000  Level Memphis Center
Fri 08:37:05 AM 34.4392 -92.6767 60° Northeast 569 655 35,000  Level Memphis Center
Fri 08:38:05 AM 34.5214 -92.5125 59° Northeast 569 655 35,000  Level Memphis Center
Fri 08:39:05 AM 34.5994 -92.3453 60° Northeast 563 648 35,000  Level Memphis Center
Fri 08:40:05 AM 34.6833 -92.1806 58° Northeast 563 648 35,000  Level Memphis Center
Fri 08:41:05 AM 34.7811 -92.0511 47° Northeast 573 659 35,000  Level Memphis Center
Fri 08:42:05 AM 34.8872 -91.9117 47° Northeast 568 654 35,000  Level Memphis Center
Fri 08:43:05 AM 34.9972 -91.7742 46° Northeast 562 647 35,000  Level Memphis Center
Fri 08:44:05 AM 35.1031 -91.6314 48° Northeast 562 647 35,000  Level Memphis Center
Fri 08:45:05 AM 35.2172 -91.4881 46° Northeast 570 656 35,000  Level Memphis Center
Fri 08:46:05 AM 35.3247 -91.3494 46° Northeast 570 656 35,000  Level Memphis Center
Fri 08:47:05 AM 35.4364 -91.2081 46° Northeast 565 650 35,000  Level Memphis Center
Fri 08:48:05 AM 35.5436 -91.0664 47° Northeast 565 650 35,000  Level Memphis Center
Fri 08:49:05 AM 35.6506 -90.9242 47° Northeast 565 650 35,000  Level Memphis Center
Fri 08:50:05 AM 35.7639 -90.7664 48° Northeast 560 644 35,000  Level Memphis Center
Fri 08:51:05 AM 35.8747 -90.6183 47° Northeast 565 650 35,000  Level Memphis Center
Fri 08:52:05 AM 35.9833 -90.4750 47° Northeast 565 650 35,000  Level Memphis Center
Fri 08:53:05 AM 36.0939 -90.3286 47° Northeast 572 658 35,000  Level Memphis Center
Fri 08:54:05 AM 36.1814 -90.2103 47° Northeast 572 658 35,000  Level Memphis Center
Fri 08:55:05 AM 36.3000 -90.0531 47° Northeast 567 652 35,000  Level Memphis Center
Fri 08:56:05 AM 36.4100 -89.9031 48° Northeast 567 652 35,000  Level Memphis Center
Fri 08:57:05 AM 36.5178 -89.7581 47° Northeast 567 652 35,000  Level Memphis Center
Fri 08:58:05 AM 36.6275 -89.6097 47° Northeast 567 652 35,000  Level Memphis Center
Fri 08:59:05 AM 36.7347 -89.4586 48° Northeast 567 652 35,000  Level Memphis Center
Fri 09:00:05 AM 36.8419 -89.3097 48° Northeast 572 658 35,000  Level Memphis Center
Fri 09:01:05 AM 36.9489 -89.1628 48° Northeast 566 651 35,000  Level Memphis Center
Fri 09:02:05 AM 37.0578 -89.0103 48° Northeast 566 651 35,000  Level Memphis Center
Fri 09:03:05 AM 37.1644 -88.8628 48° Northeast 571 657 35,000  Level Memphis Center
Fri 09:04:05 AM 37.2811 -88.6989 48° Northeast 566 651 35,000  Level Memphis Center
Fri 09:06:16 AM 37.5103 -88.3650 49° Northeast 571 657 35,000  Level Indianapolis Center
Fri 09:07:18 AM 37.6142 -88.2139 49° Northeast 571 657 35,000  Level Indianapolis Center
Fri 09:08:19 AM 37.7144 -88.0706 48° Northeast 563 648 35,000  Level Indianapolis Center
Fri 09:09:21 AM 37.8289 -87.9192 46° Northeast 569 655 35,000  Level Indianapolis Center
Fri 09:10:22 AM 37.9614 -87.8069 34° Northeast 570 656 35,000  Level Indianapolis Center
Fri 09:11:24 AM 38.0933 -87.6978 33° Northeast 562 647 35,000  Level Indianapolis Center
Fri 09:12:25 AM 38.2261 -87.5867 33° Northeast 565 650 35,000  Level Indianapolis Center
Fri 09:13:27 AM 38.3597 -87.4764 33° Northeast 565 650 35,000  Level Indianapolis Center
Fri 09:14:28 AM 38.4950 -87.3639 33° Northeast 566 651 35,000  Level Indianapolis Center
Fri 09:15:30 AM 38.6292 -87.2494 34° Northeast 569 655 35,000  Level Indianapolis Center
Fri 09:16:31 AM 38.7633 -87.1369 33° Northeast 569 655 35,000  Level Indianapolis Center
Fri 09:17:33 AM 38.8969 -87.0236 33° Northeast 570 656 35,000  Level Indianapolis Center
Fri 09:18:34 AM 39.0297 -86.9103 34° Northeast 569 655 35,000  Level Indianapolis Center
Fri 09:19:36 AM 39.1628 -86.7967 33° Northeast 571 657 35,000 -435 Level Indianapolis Center
Fri 09:20:38 AM 39.3219 -86.6600 34° Northeast 569 655 34,100 -927 Descending Indianapolis Center
Fri 09:21:39 AM 39.4528 -86.5467 34° Northeast 564 649 33,100 -537 Descending Indianapolis Center
Fri 09:22:41 AM 39.5847 -86.4314 34° Northeast 567 652 33,000 -49 Descending Indianapolis Center
Fri 09:23:42 AM 39.7183 -86.3183 33° Northeast 570 656 33,000  Level Indianapolis Center
Fri 09:24:44 AM 39.8497 -86.2008 34° Northeast 571 657 33,000  Level Indianapolis Center
Fri 09:25:46 AM 39.9808 -86.0847 34° Northeast 569 655 33,000  Level Indianapolis Center
Fri 09:26:47 AM 40.1131 -85.9672 34° Northeast 570 656 33,000 -146 Level Indianapolis Center
Fri 09:27:49 AM 40.2517 -85.8442 34° Northeast 573 659 32,700 -836 Descending Indianapolis Center
Fri 09:28:49 AM 40.3744 -85.7358 34° Northeast 579 666 31,300 -1,623 Descending Chicago Center
Fri 09:29:51 AM 40.5358 -85.5922 34° Northeast 585 673 29,400 -1,597 Descending Chicago Center
Fri 09:30:53 AM 40.6689 -85.4711 35° Northeast 585 673 28,000 -1,403 Descending Chicago Center
Fri 09:31:55 AM 40.8006 -85.3539 34° Northeast 579 666 26,500 -1,935 Descending Chicago Center
Fri 09:32:57 AM 40.9267 -85.2369 35° Northeast 566 651 24,000 -1,597 Descending Chicago Center
Fri 09:33:59 AM 41.0481 -85.1136 37° Northeast 557 641 23,200 -1,210 Descending Chicago Center
Fri 09:35:01 AM 41.1656 -84.9897 38° Northeast 550 633 21,500 -1,065 Descending Chicago Center
Fri 09:36:03 AM 41.3008 -84.8431 39° Northeast 534 615 21,000 -242 Descending Chicago Center
Fri 09:37:05 AM 41.4139 -84.7208 39° Northeast 530 610 21,000 -97 Level Chicago Center
Fri 09:38:07 AM 41.5275 -84.5981 39° Northeast 534 615 20,800 -682 Descending Chicago Center
Fri 09:38:33 AM 41.5808 -84.5392 40° Northeast 526 605 20,000 -2,581 Descending Cleveland Center
Fri 09:39:33 AM 41.6811 -84.4119 43° Northeast 513 590 17,100 -2,732 Descending Cleveland Center
Fri 09:40:25 AM 41.7403 -84.2622 62° Northeast 460 529 14,900 -2,377 Descending Cleveland Center
Fri 09:41:19 AM 41.7947 -84.1233 62° Northeast 447 514 12,900 -1,359 Descending Cleveland Center
Fri 09:42:33 AM 41.8639 -83.9767 58° Northeast 443 510 12,000 -466 Descending Cleveland Center
Fri 09:43:15 AM 41.9211 -83.8736 53° Northeast 424 488 12,000  Level Cleveland Center
Fri 09:43:33 AM 41.9364 -83.8519 47° Northeast 430 495 12,000  Level Cleveland Center
Fri 09:44:16 AM 42.0136 -83.7664 39° Northeast 436 502 12,000  Level Cleveland Center
Fri 09:44:33 AM 42.0289 -83.7450 46° Northeast 425 489 12,000  Level Cleveland Center
Fri 09:45:28 AM 42.1256 -83.6406 39° Northeast 413 475 12,000  Level Cleveland Center
Fri 09:46:33 AM 42.1903 -83.5594 43° Northeast 367 422 12,000 -492 Level Cleveland Center
Fri 09:47:30 AM 42.2747 -83.5131 22° Northeast 302 348 11,000 -1,231 Descending Cleveland Center
Fri 09:48:30 AM 42.3431 -83.4542 32° Northeast 293 337 9,600 -1,339 Descending Cleveland Center
Fri 09:49:31 AM 42.4153 -83.4014 28° Northeast 290 334 8,300 -1,357 Descending Cleveland Center
Fri 09:50:25 AM 42.4750 -83.3478 34° Northeast 274 315 7,000 -1,431 Descending Cleveland Center
Fri 09:51:20 AM 42.4744 -83.2772 91° East 205 236 5,700 -1,636 Descending Cleveland Center
Fri 09:52:15 AM 42.4314 -83.2528 157° South 186 214 4,000 -887 Descending Cleveland Center
Fri 09:53:15 AM 42.3811 -83.2536 181° South 171 197 4,000 -347 Level Cleveland Center
Fri 09:54:16 AM 42.3367 -83.2856 208° Southwest 169 194 3,300 -689 Descending Cleveland Center

Login

Don't have an account? Register now (free) for customized features, flight alerts, and more!